createdAt,value
2019-02-19T00:00:01.387Z,69.37
2019-02-19T00:02:32.062Z,69.80
2019-02-19T00:05:02.816Z,69.40
2019-02-19T00:07:33.322Z,69.01
2019-02-19T00:10:03.973Z,69.11
2019-02-19T00:12:34.604Z,69.72
2019-02-19T00:15:08.363Z,70.09
2019-02-19T00:17:37.844Z,69.72
2019-02-19T00:20:08.469Z,68.76
2019-02-19T00:22:38.932Z,68.68
2019-02-19T00:25:09.559Z,68.63
2019-02-19T00:27:40.063Z,68.49
2019-02-19T00:30:11.284Z,68.41
2019-02-19T00:32:41.912Z,68.27
2019-02-19T00:35:12.613Z,67.98
2019-02-19T00:37:43.259Z,67.70
2019-02-19T00:40:13.849Z,66.92
2019-02-19T00:42:44.212Z,66.90
2019-02-19T00:45:16.766Z,66.96
2019-02-19T00:47:47.188Z,66.77
2019-02-19T00:50:17.861Z,66.60
2019-02-19T00:52:48.405Z,66.70
2019-02-19T00:55:18.884Z,66.71
2019-02-19T00:57:49.382Z,66.77
2019-02-19T01:00:20.115Z,67.10
2019-02-19T01:02:51.248Z,67.23
2019-02-19T01:05:21.893Z,67.11
2019-02-19T01:07:52.412Z,67.48
2019-02-19T01:10:22.862Z,67.74
2019-02-19T01:12:53.802Z,67.95
2019-02-19T01:15:25.679Z,67.31
2019-02-19T01:17:57.805Z,67.76
2019-02-19T01:20:28.354Z,68.53
2019-02-19T01:22:58.902Z,68.63
2019-02-19T01:25:29.406Z,68.69
2019-02-19T01:27:59.904Z,68.79
2019-02-19T01:30:30.325Z,68.92
2019-02-19T01:33:00.855Z,69.12
2019-02-19T01:35:31.584Z,69.21
2019-02-19T01:38:02.049Z,69.08
2019-02-19T01:40:32.452Z,69.05
2019-02-19T01:43:03.006Z,68.77
2019-02-19T01:45:34.267Z,68.83
2019-02-19T01:48:05.045Z,69.08
2019-02-19T01:50:35.471Z,69.10
2019-02-19T01:53:06.012Z,69.28
2019-02-19T01:55:36.522Z,69.41
2019-02-19T01:58:07.048Z,69.60
2019-02-19T02:00:37.504Z,69.47
2019-02-19T02:03:07.963Z,69.47
2019-02-19T02:05:38.373Z,69.70
2019-02-19T02:08:09.022Z,69.84
2019-02-19T02:10:39.464Z,68.67
2019-02-19T02:13:09.808Z,69.07
2019-02-19T02:15:42.705Z,69.42
2019-02-19T02:18:12.494Z,69.66
2019-02-19T02:20:43.069Z,70.00
2019-02-19T02:23:13.483Z,70.36
2019-02-19T02:25:43.825Z,70.34
2019-02-19T02:28:14.164Z,70.45
2019-02-19T02:30:44.653Z,70.63
2019-02-19T02:33:15.092Z,70.89
2019-02-19T02:35:45.464Z,71.20
2019-02-19T02:38:15.800Z,71.18
2019-02-19T02:40:46.433Z,70.81
2019-02-19T02:43:16.844Z,70.45
2019-02-19T02:45:53.398Z,70.07
2019-02-19T02:48:19.474Z,69.78
2019-02-19T02:50:50.020Z,69.86
2019-02-19T02:53:20.483Z,69.53
2019-02-19T02:55:50.808Z,69.39
2019-02-19T02:58:21.212Z,69.55
2019-02-19T03:00:51.802Z,69.60
2019-02-19T03:03:22.364Z,69.90
2019-02-19T03:06:18.103Z,70.27
2019-02-19T03:08:48.558Z,70.50
2019-02-19T03:11:19.192Z,70.21
2019-02-19T03:13:49.662Z,69.73
2019-02-19T03:16:20.354Z,69.95
2019-02-19T03:18:50.862Z,69.97
2019-02-19T03:21:21.598Z,70.58
2019-02-19T03:23:52.112Z,71.00
2019-02-19T03:26:22.519Z,71.26
2019-02-19T03:28:52.900Z,71.42
2019-02-19T03:31:23.380Z,71.71
2019-02-19T03:33:54.033Z,72.20
2019-02-19T03:36:24.423Z,72.55
2019-02-19T03:38:54.870Z,72.97
2019-02-19T03:41:25.249Z,73.30
2019-02-19T03:43:55.764Z,73.46
2019-02-19T03:46:26.182Z,72.72
2019-02-19T03:48:56.684Z,73.11
2019-02-19T03:51:27.544Z,73.21
2019-02-19T03:53:58.034Z,73.48
2019-02-19T03:56:28.520Z,74.03
2019-02-19T03:58:59.021Z,73.74
2019-02-19T04:01:29.508Z,73.46
2019-02-19T04:04:00.076Z,73.83
2019-02-19T04:06:32.373Z,74.08
2019-02-19T04:09:02.734Z,74.31
2019-02-19T04:11:33.296Z,73.08
2019-02-19T04:14:11.094Z,73.26
2019-02-19T04:16:41.564Z,73.58
2019-02-19T04:19:12.213Z,73.56
2019-02-19T04:21:42.634Z,73.96
2019-02-19T04:24:13.144Z,74.16
2019-02-19T04:26:43.634Z,74.54
2019-02-19T04:29:14.126Z,73.80
2019-02-19T04:31:44.502Z,73.47
2019-02-19T04:34:15.226Z,73.89
2019-02-19T04:36:45.554Z,74.10
2019-02-19T04:39:15.919Z,74.07
2019-02-19T04:41:46.415Z,74.00
2019-02-19T04:44:17.007Z,73.76
2019-02-19T04:46:47.472Z,73.19
2019-02-19T04:49:17.989Z,72.06
2019-02-19T04:51:48.383Z,70.78
2019-02-19T04:54:19.033Z,71.35
2019-02-19T04:56:49.456Z,71.71
2019-02-19T04:59:19.966Z,71.50
2019-02-19T05:01:50.689Z,71.96
2019-02-19T05:04:21.152Z,72.31
2019-02-19T05:06:51.725Z,72.50
2019-02-19T05:09:22.251Z,72.56
2019-02-19T05:11:52.760Z,72.88
2019-02-19T05:14:23.296Z,73.28
2019-02-19T05:16:53.722Z,73.24
2019-02-19T05:19:24.258Z,73.26
2019-02-19T05:21:54.748Z,73.30
2019-02-19T05:24:25.234Z,73.68
2019-02-19T05:26:55.782Z,73.71
2019-02-19T05:29:26.355Z,73.92
2019-02-19T05:31:56.922Z,73.58
2019-02-19T05:34:27.510Z,73.34
2019-02-19T05:36:58.092Z,73.32
2019-02-19T05:39:28.656Z,73.12
2019-02-19T05:41:59.179Z,73.15
2019-02-19T05:44:29.709Z,73.14
2019-02-19T05:47:00.605Z,73.16
2019-02-19T05:49:31.457Z,73.14
2019-02-19T05:52:02.260Z,73.25
2019-02-19T05:54:34.419Z,73.57
2019-02-19T05:57:05.170Z,73.73
2019-02-19T05:59:35.999Z,73.81
2019-02-19T06:02:06.458Z,74.20
2019-02-19T06:04:37.120Z,74.44
2019-02-19T06:07:07.794Z,74.44
2019-02-19T06:09:38.208Z,74.20
2019-02-19T06:12:08.711Z,73.95
2019-02-19T06:14:39.110Z,73.72
2019-02-19T06:17:09.645Z,73.05
2019-02-19T06:19:40.066Z,72.04
2019-02-19T06:22:10.558Z,70.46
2019-02-19T06:24:41.091Z,68.74
2019-02-19T06:27:11.550Z,65.58
2019-02-19T06:29:41.954Z,61.45
2019-02-19T06:32:12.444Z,58.13
2019-02-19T06:34:42.977Z,56.97
2019-02-19T06:37:13.899Z,55.49
2019-02-19T06:39:44.421Z,52.22
2019-02-19T06:42:14.868Z,49.65
2019-02-19T06:44:45.504Z,47.98
2019-02-19T06:47:15.874Z,45.78
2019-02-19T06:49:46.289Z,43.51
2019-02-19T06:52:16.754Z,42.10
2019-02-19T06:54:47.362Z,40.49
2019-02-19T06:57:17.944Z,39.54
2019-02-19T06:59:48.492Z,39.03
2019-02-19T07:02:25.849Z,38.16
2019-02-19T07:04:58.944Z,36.82
2019-02-19T07:07:29.458Z,36.22
2019-02-19T07:09:59.890Z,35.78
2019-02-19T07:12:30.637Z,35.43
2019-02-19T07:15:02.044Z,34.89
2019-02-19T07:17:32.536Z,35.10
2019-02-19T07:20:03.035Z,35.51
2019-02-19T07:22:33.571Z,35.90
2019-02-19T07:25:04.555Z,35.89
2019-02-19T07:27:35.309Z,37.81
2019-02-19T07:30:06.830Z,38.01
2019-02-19T07:32:37.485Z,34.95
2019-02-19T07:35:08.262Z,34.87
2019-02-19T07:37:38.829Z,33.62
2019-02-19T07:40:09.699Z,33.47
2019-02-19T07:42:40.219Z,32.14
2019-02-19T07:45:11.254Z,32.17
2019-02-19T07:47:41.890Z,31.86
2019-02-19T07:50:12.600Z,32.02
2019-02-19T07:52:43.241Z,32.52
2019-02-19T07:55:13.990Z,32.67
2019-02-19T07:57:44.590Z,32.28
2019-02-19T08:00:15.431Z,32.19
2019-02-19T08:02:45.984Z,32.45
2019-02-19T08:05:16.469Z,32.68
2019-02-19T08:07:47.107Z,31.26
2019-02-19T08:10:17.555Z,32.59
2019-02-19T08:12:48.624Z,31.67
2019-02-19T08:15:19.102Z,32.00
2019-02-19T08:17:49.655Z,30.56
2019-02-19T08:20:20.150Z,31.08
2019-02-19T08:22:50.668Z,30.60
2019-02-19T08:25:21.328Z,31.11
2019-02-19T08:27:51.765Z,30.94
2019-02-19T08:30:22.665Z,30.85
2019-02-19T08:32:53.024Z,31.74
2019-02-19T08:35:23.625Z,30.73
2019-02-19T08:37:54.878Z,29.93
2019-02-19T08:40:25.388Z,29.86
2019-02-19T08:42:56.058Z,32.59
2019-02-19T08:45:26.761Z,31.46
2019-02-19T08:47:57.208Z,31.69
2019-02-19T08:50:27.523Z,32.92
2019-02-19T08:52:58.070Z,33.09
2019-02-19T08:55:28.808Z,32.83
2019-02-19T08:57:59.456Z,32.25
2019-02-19T09:00:29.999Z,31.98
2019-02-19T09:03:00.633Z,32.06
2019-02-19T09:05:31.095Z,31.64
2019-02-19T09:08:01.435Z,31.35
2019-02-19T09:10:31.817Z,30.90
2019-02-19T09:13:02.457Z,35.62
2019-02-19T09:15:33.048Z,32.03
2019-02-19T09:18:03.471Z,35.06
2019-02-19T09:20:34.010Z,34.65
2019-02-19T09:23:04.490Z,30.98
2019-02-19T09:25:34.925Z,31.32
2019-02-19T09:28:05.830Z,29.77
2019-02-19T09:30:37.764Z,32.25
2019-02-19T09:33:08.879Z,29.74
2019-02-19T09:35:39.399Z,29.25
2019-02-19T09:38:09.991Z,30.31
2019-02-19T09:40:40.404Z,29.12
2019-02-19T09:43:10.955Z,29.58
2019-02-19T09:45:41.591Z,31.04
2019-02-19T09:48:12.398Z,31.14
2019-02-19T09:50:42.871Z,29.26
2019-02-19T09:53:13.525Z,29.24
2019-02-19T09:55:44.004Z,31.38
2019-02-19T09:58:14.302Z,28.79
2019-02-19T10:00:44.824Z,30.00
2019-02-19T10:03:15.741Z,30.41
2019-02-19T10:05:48.075Z,29.83
2019-02-19T10:08:18.604Z,29.13
2019-02-19T10:10:49.202Z,28.61
2019-02-19T10:13:19.924Z,28.65
2019-02-19T10:15:50.413Z,30.62
2019-02-19T10:18:20.907Z,29.80
2019-02-19T10:20:51.930Z,29.54
2019-02-19T10:23:22.561Z,28.43
2019-02-19T10:25:53.093Z,28.69
2019-02-19T10:28:23.606Z,28.50
2019-02-19T10:31:00.450Z,28.36
2019-02-19T10:33:30.810Z,27.65
2019-02-19T10:36:01.264Z,28.11
2019-02-19T10:38:31.696Z,27.07
2019-02-19T10:41:02.685Z,28.10
2019-02-19T10:43:33.353Z,28.69
2019-02-19T10:46:04.179Z,28.59
2019-02-19T10:48:34.675Z,28.71
2019-02-19T10:51:05.493Z,27.81
2019-02-19T10:53:36.055Z,27.88
2019-02-19T10:56:07.965Z,27.74
2019-02-19T10:58:38.695Z,28.96
2019-02-19T11:01:09.245Z,28.82
2019-02-19T11:03:39.806Z,28.49
2019-02-19T11:06:10.278Z,29.04
2019-02-19T11:08:40.839Z,28.62
2019-02-19T11:11:11.438Z,28.98
2019-02-19T11:13:41.912Z,29.04
2019-02-19T11:16:12.391Z,29.54
2019-02-19T11:18:43.004Z,30.05
2019-02-19T11:21:19.327Z,29.75
2019-02-19T11:23:45.657Z,29.40
2019-02-19T11:26:16.274Z,29.20
2019-02-19T11:28:46.849Z,29.70
2019-02-19T11:31:17.434Z,29.64
2019-02-19T11:33:48.038Z,30.48
2019-02-19T11:36:18.597Z,30.21
2019-02-19T11:38:49.182Z,31.78
2019-02-19T11:41:19.837Z,31.69
2019-02-19T11:43:51.043Z,33.09
2019-02-19T11:46:21.597Z,32.15
2019-02-19T11:48:52.137Z,31.55
2019-02-19T11:51:22.559Z,31.42
2019-02-19T11:53:52.952Z,31.01
2019-02-19T11:56:23.641Z,31.93
2019-02-19T11:58:54.208Z,32.53
2019-02-19T12:01:25.042Z,32.44
2019-02-19T12:03:55.531Z,32.43
2019-02-19T12:06:25.932Z,33.70
2019-02-19T12:08:57.139Z,33.60
2019-02-19T12:11:27.774Z,32.39
2019-02-19T12:13:58.252Z,33.63
2019-02-19T12:16:28.789Z,33.28
2019-02-19T12:18:59.481Z,35.23
2019-02-19T12:21:29.845Z,34.84
2019-02-19T12:24:00.285Z,36.32
2019-02-19T12:26:30.784Z,36.74
2019-02-19T12:29:01.312Z,36.07
2019-02-19T12:31:31.822Z,36.95
2019-02-19T12:34:02.330Z,37.41
2019-02-19T12:36:33.368Z,38.03
2019-02-19T12:39:05.195Z,38.37
2019-02-19T12:41:35.853Z,37.98
2019-02-19T12:44:06.812Z,38.39
2019-02-19T12:46:37.389Z,38.69
2019-02-19T12:49:07.927Z,38.48
2019-02-19T12:51:38.388Z,38.90
2019-02-19T12:54:08.900Z,39.57
2019-02-19T12:56:39.353Z,39.86
2019-02-19T12:59:09.871Z,39.84
2019-02-19T13:01:40.419Z,40.54
2019-02-19T13:04:10.889Z,40.94
2019-02-19T13:06:41.425Z,39.79
2019-02-19T13:09:11.844Z,41.37
2019-02-19T13:11:42.222Z,41.36
2019-02-19T13:14:12.940Z,41.06
2019-02-19T13:16:43.524Z,41.47
2019-02-19T13:19:13.994Z,41.86
2019-02-19T13:21:44.474Z,42.98
2019-02-19T13:24:14.977Z,43.18
2019-02-19T13:26:45.868Z,43.39
2019-02-19T13:29:16.304Z,43.48
2019-02-19T13:31:46.782Z,45.47
2019-02-19T13:34:17.284Z,44.81
2019-02-19T13:36:48.033Z,44.74
2019-02-19T13:39:19.323Z,44.91
2019-02-19T13:41:49.769Z,45.14
2019-02-19T13:44:20.309Z,45.69
2019-02-19T13:46:50.892Z,45.82
2019-02-19T13:49:21.613Z,45.96
2019-02-19T13:51:53.884Z,46.10
2019-02-19T13:54:40.719Z,46.38
2019-02-19T13:57:11.158Z,45.93
2019-02-19T13:59:41.580Z,46.64
2019-02-19T14:02:12.080Z,46.43
2019-02-19T14:04:42.493Z,47.63
2019-02-19T14:07:12.926Z,48.25
2019-02-19T14:09:43.402Z,49.11
2019-02-19T14:12:13.881Z,49.04
2019-02-19T14:14:49.114Z,50.56
2019-02-19T14:17:22.273Z,50.86
2019-02-19T14:20:00.305Z,51.23
2019-02-19T14:22:47.459Z,49.61
2019-02-19T14:25:36.772Z,49.57
2019-02-19T14:28:26.229Z,49.67
2019-02-19T14:31:15.862Z,49.41
2019-02-19T14:34:05.268Z,49.52
2019-02-19T14:36:48.866Z,49.65
2019-02-19T14:39:38.189Z,49.91
2019-02-19T14:42:27.656Z,50.83
2019-02-19T14:45:14.178Z,50.55
2019-02-19T14:48:03.530Z,51.18
2019-02-19T14:50:52.770Z,51.79
2019-02-19T14:53:42.170Z,52.06
2019-02-19T14:56:31.503Z,52.22
2019-02-19T14:59:20.891Z,52.87
2019-02-19T15:02:10.372Z,53.25
2019-02-19T15:04:59.643Z,53.61
2019-02-19T15:07:48.991Z,54.29
2019-02-19T15:10:38.445Z,54.30
2019-02-19T15:13:27.982Z,54.82
2019-02-19T15:16:17.449Z,54.59
2019-02-19T15:19:06.780Z,54.68
2019-02-19T15:21:56.059Z,55.13
2019-02-19T15:24:45.349Z,55.07
2019-02-19T15:27:34.668Z,55.10
2019-02-19T15:30:24.432Z,55.29
2019-02-19T15:33:14.262Z,55.32
2019-02-19T15:36:03.805Z,55.32
2019-02-19T15:38:53.259Z,55.10
2019-02-19T15:41:36.654Z,56.19
2019-02-19T15:44:25.978Z,56.02
2019-02-19T15:47:06.758Z,56.36
2019-02-19T15:49:56.400Z,56.23
2019-02-19T15:52:46.080Z,56.53
2019-02-19T15:55:30.317Z,56.66
2019-02-19T15:58:19.710Z,56.48
2019-02-19T16:01:09.344Z,56.16
2019-02-19T16:03:52.548Z,57.13
2019-02-19T16:06:42.154Z,57.07
2019-02-19T16:09:32.133Z,57.91
2019-02-19T16:12:15.502Z,58.16
2019-02-19T16:15:04.945Z,59.41
2019-02-19T16:17:54.409Z,60.45
2019-02-19T16:20:43.770Z,60.75
2019-02-19T16:23:32.685Z,60.63
2019-02-19T16:26:20.087Z,61.13
2019-02-19T16:29:09.433Z,61.54
2019-02-19T16:31:59.004Z,62.32
2019-02-19T16:34:48.531Z,61.79
2019-02-19T16:37:32.217Z,62.15
2019-02-19T16:40:21.745Z,63.55
2019-02-19T16:43:11.108Z,63.77
2019-02-19T16:45:54.708Z,62.32
2019-02-19T16:48:44.561Z,63.40
2019-02-19T16:51:34.036Z,62.53
2019-02-19T16:54:13.705Z,63.88
2019-02-19T16:56:52.113Z,63.98
2019-02-19T16:59:41.601Z,64.41
2019-02-19T17:02:26.434Z,64.47
2019-02-19T17:05:15.795Z,65.65
2019-02-19T17:07:51.656Z,65.90
2019-02-19T17:10:30.030Z,66.19
2019-02-19T17:13:19.446Z,67.94
2019-02-19T17:16:02.520Z,68.21
2019-02-19T17:18:42.003Z,68.13
2019-02-19T17:21:23.600Z,69.21
2019-02-19T17:24:15.259Z,69.39
2019-02-19T17:26:59.831Z,70.00
2019-02-19T17:29:39.149Z,70.89
2019-02-19T17:32:34.587Z,71.76
2019-02-19T17:35:26.933Z,72.35
2019-02-19T17:38:14.387Z,71.97
2019-02-19T17:40:51.248Z,72.48
2019-02-19T17:43:33.451Z,72.94
2019-02-19T17:46:25.965Z,73.17
2019-02-19T17:49:01.494Z,73.14
2019-02-19T17:51:50.895Z,73.59
2019-02-19T17:54:31.262Z,73.67
2019-02-19T17:57:20.646Z,74.10
2019-02-19T18:00:10.101Z,74.26
2019-02-19T18:02:54.687Z,74.97
2019-02-19T18:05:48.502Z,75.13
2019-02-19T18:08:30.427Z,75.27
2019-02-19T18:11:19.956Z,75.01
2019-02-19T18:14:07.327Z,74.92
2019-02-19T18:17:01.078Z,75.14
2019-02-19T18:19:42.893Z,75.02
2019-02-19T18:22:16.892Z,75.01
2019-02-19T18:24:58.580Z,74.69
2019-02-19T18:27:37.346Z,74.92
2019-02-19T18:30:11.252Z,75.03
2019-02-19T18:32:46.581Z,75.16
2019-02-19T18:35:18.183Z,75.41
2019-02-19T18:37:58.417Z,75.33
2019-02-19T18:40:31.080Z,75.33
2019-02-19T18:43:03.166Z,75.26
2019-02-19T18:45:39.185Z,75.39
2019-02-19T18:48:10.735Z,75.74
2019-02-19T18:50:42.673Z,75.99
2019-02-19T18:53:16.756Z,76.11
2019-02-19T18:55:51.132Z,76.50
2019-02-19T18:58:28.365Z,76.63
2019-02-19T19:01:02.147Z,76.90
2019-02-19T19:03:36.318Z,76.85
2019-02-19T19:06:07.326Z,76.69
2019-02-19T19:08:37.905Z,76.94
2019-02-19T19:11:09.681Z,76.66
2019-02-19T19:13:53.529Z,76.39
2019-02-19T19:16:29.852Z,76.53
2019-02-19T19:19:07.402Z,76.89
2019-02-19T19:21:43.980Z,77.26
2019-02-19T19:24:18.355Z,77.57
2019-02-19T19:27:02.510Z,77.86
2019-02-19T19:29:40.349Z,78.26
2019-02-19T19:32:13.573Z,78.66
2019-02-19T19:34:48.794Z,79.19
2019-02-19T19:37:21.040Z,79.35
2019-02-19T19:39:58.259Z,79.76
2019-02-19T19:42:31.834Z,79.98
2019-02-19T19:45:09.918Z,80.24
2019-02-19T19:47:40.559Z,80.48
2019-02-19T19:50:22.909Z,80.72
2019-02-19T19:53:01.346Z,81.23
2019-02-19T19:55:37.594Z,81.31
2019-02-19T19:58:10.583Z,81.58
2019-02-19T20:00:48.001Z,81.75
2019-02-19T20:03:20.954Z,82.22
2019-02-19T20:06:12.228Z,82.21
2019-02-19T20:08:44.009Z,82.40
2019-02-19T20:11:19.696Z,82.88
2019-02-19T20:13:55.384Z,82.86
2019-02-19T20:16:28.367Z,83.31
2019-02-19T20:19:04.784Z,83.28
2019-02-19T20:21:38.861Z,83.49
2019-02-19T20:24:12.969Z,83.62
2019-02-19T20:26:45.986Z,83.81
2019-02-19T20:29:16.739Z,84.08
2019-02-19T20:31:55.418Z,84.14
2019-02-19T20:34:30.177Z,84.30
2019-02-19T20:37:10.536Z,84.33
2019-02-19T20:39:44.447Z,84.58
2019-02-19T20:42:21.889Z,84.78
2019-02-19T20:45:00.509Z,84.93
2019-02-19T20:47:33.245Z,85.02
2019-02-19T20:50:08.030Z,85.00
2019-02-19T20:52:39.999Z,85.33
2019-02-19T20:55:16.985Z,85.43
2019-02-19T20:57:51.786Z,85.45
2019-02-19T21:00:30.075Z,85.60
2019-02-19T21:03:01.928Z,85.84
2019-02-19T21:05:40.331Z,86.18
2019-02-19T21:08:15.329Z,86.24
2019-02-19T21:10:46.208Z,86.34
2019-02-19T21:13:17.975Z,86.45
2019-02-19T21:15:51.377Z,86.39
2019-02-19T21:18:25.888Z,86.24
2019-02-19T21:21:02.591Z,86.25
2019-02-19T21:23:33.305Z,86.22
2019-02-19T21:26:05.045Z,86.31
2019-02-19T21:28:37.837Z,86.32
2019-02-19T21:31:18.940Z,86.28
2019-02-19T21:33:58.521Z,86.33
2019-02-19T21:36:29.974Z,86.39
2019-02-19T21:39:05.039Z,86.57
2019-02-19T21:41:35.800Z,86.55
2019-02-19T21:44:06.835Z,86.52
2019-02-19T21:46:37.349Z,86.53
2019-02-19T21:49:08.959Z,86.88
2019-02-19T21:51:39.373Z,87.06
2019-02-19T21:54:10.145Z,87.18
2019-02-19T21:56:41.798Z,87.43
2019-02-19T21:59:12.781Z,87.78
2019-02-19T22:01:43.258Z,87.88
2019-02-19T22:04:13.802Z,87.82
2019-02-19T22:06:44.217Z,88.51
2019-02-19T22:09:14.790Z,88.78
2019-02-19T22:11:45.162Z,89.13
2019-02-19T22:14:16.142Z,89.34
2019-02-19T22:16:46.623Z,89.59
2019-02-19T22:19:18.994Z,89.73
2019-02-19T22:22:02.974Z,89.75
2019-02-19T22:24:36.460Z,89.78
2019-02-19T22:27:08.566Z,89.85
2019-02-19T22:29:39.879Z,89.92
2019-02-19T22:32:11.221Z,89.99
2019-02-19T22:34:41.684Z,90.01
2019-02-19T22:37:12.189Z,90.03
2019-02-19T22:39:42.637Z,89.85
2019-02-19T22:42:13.276Z,89.55
2019-02-19T22:44:43.665Z,89.33
2019-02-19T22:47:14.138Z,88.97
2019-02-19T22:49:44.630Z,88.66
2019-02-19T22:52:15.103Z,88.37
2019-02-19T22:55:04.431Z,87.91
2019-02-19T22:57:35.169Z,87.44
2019-02-19T23:00:09.698Z,87.17
2019-02-19T23:02:40.587Z,86.94
2019-02-19T23:05:11.194Z,86.77
2019-02-19T23:07:41.832Z,86.59
2019-02-19T23:10:12.473Z,86.30
2019-02-19T23:12:43.142Z,85.97
2019-02-19T23:15:13.734Z,85.50
2019-02-19T23:17:44.424Z,85.01
2019-02-19T23:20:14.993Z,84.62
2019-02-19T23:22:45.523Z,84.26
2019-02-19T23:25:16.089Z,84.00
2019-02-19T23:27:46.604Z,83.75
2019-02-19T23:30:17.084Z,83.58
2019-02-19T23:32:47.600Z,83.47
2019-02-19T23:35:36.874Z,83.30
2019-02-19T23:38:07.901Z,83.18
2019-02-19T23:40:38.673Z,83.24
2019-02-19T23:43:09.092Z,83.14
2019-02-19T23:45:39.902Z,83.01
2019-02-19T23:48:10.468Z,83.12
2019-02-19T23:50:41.226Z,82.97
2019-02-19T23:53:11.662Z,82.77
2019-02-19T23:55:42.084Z,82.42
2019-02-19T23:58:12.689Z,82.04
